Time;durP1;ratioP1;P1;durP2;ratioP2;P2;SDS_P1;SDS_P2;PMS_P1;PMS_P2;Temp;Humidity;BMP_temperature;BMP_pressure;BME280_temperature;BME280_humidity;BME280_pressure;Samples;Min_cycle;Max_cycle;Signal;HPM_P1;HPM_P2
2021/01/27 00:01:28;;;;;;;6.45;3.13;;;;;;;1.78;100.00;101641.13;5226002;28;20392;-65
2021/01/27 00:03:59;;;;;;;10.75;3.38;;;;;;;1.62;100.00;101635.03;5224471;28;20025;-66
2021/01/27 00:06:29;;;;;;;6.05;3.15;;;;;;;1.64;100.00;101633.13;5225777;28;20071;-66
2021/01/27 00:09:00;;;;;;;12.80;3.53;;;;;;;1.51;100.00;101618.94;5224882;28;20024;-66
2021/01/27 00:11:30;;;;;;;6.90;3.65;;;;;;;1.51;100.00;101626.88;5225424;28;20025;-66
2021/01/27 00:14:00;;;;;;;10.43;3.40;;;;;;;1.46;100.00;101628.94;5223861;28;20078;-66
2021/01/27 00:16:31;;;;;;;10.65;3.25;;;;;;;1.41;100.00;101621.25;5226092;28;20507;-66
2021/01/27 00:19:03;;;;;;;7.15;3.38;;;;;;;1.45;100.00;101622.75;5216053;28;20373;-66
2021/01/27 00:21:33;;;;;;;7.88;3.83;;;;;;;1.34;100.00;101616.41;5214044;28;20021;-66
2021/01/27 00:24:04;;;;;;;7.40;3.30;;;;;;;1.27;100.00;101623.84;5223659;28;20523;-66
2021/01/27 00:26:35;;;;;;;9.40;3.60;;;;;;;1.23;100.00;101627.59;5225500;28;20393;-64
2021/01/27 00:29:05;;;;;;;10.35;3.78;;;;;;;1.20;100.00;101633.03;5224869;28;20017;-67
2021/01/27 00:31:36;;;;;;;11.05;4.00;;;;;;;1.11;100.00;101634.44;5225384;28;20029;-66
2021/01/27 00:34:07;;;;;;;10.10;4.07;;;;;;;1.08;100.00;101634.59;5222962;28;20028;-67
2021/01/27 00:36:37;;;;;;;7.22;3.67;;;;;;;1.05;100.00;101634.75;5218230;28;20104;-64
2021/01/27 00:39:07;;;;;;;7.53;3.90;;;;;;;1.04;100.00;101630.41;5225244;28;20453;-66
2021/01/27 00:41:38;;;;;;;8.13;4.47;;;;;;;0.96;100.00;101624.72;5224788;28;20032;-66
2021/01/27 00:44:08;;;;;;;7.18;4.00;;;;;;;0.98;100.00;101612.25;5223981;28;20584;-66
2021/01/27 00:46:39;;;;;;;6.70;3.45;;;;;;;0.98;100.00;101612.25;5224161;28;20362;-66
2021/01/27 00:49:09;;;;;;;7.50;3.47;;;;;;;0.98;100.00;101615.75;5224711;28;20029;-65
2021/01/27 00:51:40;;;;;;;9.57;4.07;;;;;;;0.95;100.00;101607.13;5224478;28;20373;-66
2021/01/27 00:54:10;;;;;;;7.97;4.20;;;;;;;0.95;100.00;101593.94;5223932;28;20043;-66
2021/01/27 00:56:41;;;;;;;13.80;4.25;;;;;;;0.88;100.00;101598.72;5224818;28;20368;-66
2021/01/27 00:59:11;;;;;;;10.25;4.20;;;;;;;0.86;100.00;101595.31;5224077;28;20159;-66
2021/01/27 01:01:42;;;;;;;8.02;4.00;;;;;;;0.89;100.00;101596.91;5224547;28;20084;-66
2021/01/27 01:04:12;;;;;;;8.50;4.15;;;;;;;0.94;100.00;101587.78;5223269;28;20103;-66
2021/01/27 01:06:42;;;;;;;16.42;4.28;;;;;;;0.92;100.00;101591.47;5224600;28;20033;-66
2021/01/27 01:09:13;;;;;;;13.43;4.55;;;;;;;0.88;100.00;101582.88;5224703;28;20427;-66
2021/01/27 01:11:44;;;;;;;8.32;4.38;;;;;;;0.84;100.00;101583.97;5223915;28;20366;-65
2021/01/27 01:14:14;;;;;;;13.02;4.75;;;;;;;0.86;100.00;101575.97;5223693;28;20024;-66
2021/01/27 01:16:45;;;;;;;8.60;4.30;;;;;;;0.84;100.00;101573.41;5224054;28;20439;-67
2021/01/27 01:19:15;;;;;;;8.88;4.28;;;;;;;0.89;100.00;101578.44;5212932;28;20025;-66
2021/01/27 01:21:46;;;;;;;10.40;4.85;;;;;;;0.89;100.00;101566.06;5214816;28;20021;-66
2021/01/27 01:24:17;;;;;;;11.30;4.40;;;;;;;0.90;100.00;101574.84;5227458;28;20472;-65
2021/01/27 01:26:47;;;;;;;8.52;4.05;;;;;;;0.89;100.00;101559.94;5223820;28;20063;-66
2021/01/27 01:29:17;;;;;;;13.75;4.65;;;;;;;0.92;100.00;101554.50;5224143;28;20053;-66
2021/01/27 01:31:48;;;;;;;10.07;4.15;;;;;;;0.92;100.00;101551.84;5223399;28;20025;-66
2021/01/27 01:34:18;;;;;;;11.38;4.28;;;;;;;0.92;100.00;101539.50;5221263;28;20516;-66
2021/01/27 01:36:49;;;;;;;8.60;4.28;;;;;;;0.92;100.00;101530.72;5216606;28;20436;-66
2021/01/27 01:39:19;;;;;;;13.00;4.07;;;;;;;0.90;100.00;101522.00;5223967;28;20025;-67
2021/01/27 01:41:50;;;;;;;11.77;5.78;;;;;;;0.95;100.00;101507.59;5223469;28;20128;-67
2021/01/27 01:44:20;;;;;;;15.60;4.45;;;;;;;0.96;100.00;101485.53;5223137;28;20116;-66
2021/01/27 01:46:51;;;;;;;8.15;4.07;;;;;;;0.96;100.00;101485.53;5223022;28;20025;-66
2021/01/27 01:49:22;;;;;;;10.05;4.60;;;;;;;0.90;100.00;101477.09;5223653;28;20036;-66
2021/01/27 01:51:56;;;;;;;9.27;4.30;;;;;;;0.94;100.00;101476.81;5223007;28;20033;-66
2021/01/27 01:54:37;;;;;;;10.40;4.68;;;;;;;0.93;100.00;101484.84;5222725;28;20052;-65
2021/01/27 01:57:12;;;;;;;7.43;4.20;;;;;;;0.94;100.00;101473.34;5223331;28;20018;-66
2021/01/27 01:59:47;;;;;;;;;;;;;;;0.91;100.00;101457.69;5223597;28;20060;-65
2021/01/27 02:02:19;;;;;;;10.25;4.70;;;;;;;0.86;100.00;101444.75;5222992;28;20004;-66
2021/01/27 02:04:53;;;;;;;11.93;4.53;;;;;;;0.83;100.00;101434.34;5222996;28;20456;-67
2021/01/27 02:07:24;;;;;;;12.13;5.10;;;;;;;0.84;100.00;101432.53;5223318;28;20107;-66
2021/01/27 02:09:55;;;;;;;12.00;5.55;;;;;;;0.82;100.00;101437.94;5222803;28;20059;-65
2021/01/27 02:12:56;;;;;;;13.95;5.32;;;;;;;0.83;100.00;101430.84;5222588;28;20547;-66
2021/01/27 02:15:34;;;;;;;11.27;5.10;;;;;;;0.84;100.00;101424.63;5223571;28;20025;-66
2021/01/27 02:18:27;;;;;;;11.13;4.97;;;;;;;0.82;100.00;101422.09;5221371;28;20435;-66
2021/01/27 02:21:27;;;;;;;11.60;5.47;;;;;;;0.82;100.00;101423.88;5206854;28;20116;-66
2021/01/27 02:24:21;;;;;;;13.70;5.72;;;;;;;0.77;100.00;101409.13;5221794;28;20024;-64
2021/01/27 02:27:06;;;;;;;10.60;5.00;;;;;;;0.76;100.00;101396.03;5222739;28;20059;-66
2021/01/27 02:29:51;;;;;;;10.70;5.05;;;;;;;0.80;100.00;101378.19;5211545;28;20108;-66
2021/01/27 02:32:24;;;;;;;11.05;5.00;;;;;;;0.73;100.00;101378.56;5222313;28;20025;-65
2021/01/27 02:35:13;;;;;;;12.82;4.88;;;;;;;0.72;100.00;101376.88;5214920;28;20041;-66
2021/01/27 02:37:52;;;;;;;12.13;4.97;;;;;;;0.75;100.00;101367.91;5210453;28;20021;-67
2021/01/27 02:40:26;;;;;;;9.65;4.40;;;;;;;0.80;100.00;101389.59;5223222;28;20074;-66
2021/01/27 02:43:07;;;;;;;14.20;5.13;;;;;;;0.82;100.00;101398.31;5221647;28;20066;-66
2021/01/27 02:45:44;;;;;;;13.20;5.53;;;;;;;0.80;100.00;101386.13;5222698;28;20040;-65
2021/01/27 02:48:25;;;;;;;11.70;4.93;;;;;;;0.79;100.00;101369.41;5222197;28;20032;-67
2021/01/27 02:51:05;;;;;;;9.35;5.03;;;;;;;0.82;100.00;101356.03;5222971;28;20025;-66
2021/01/27 02:53:45;;;;;;;9.25;4.93;;;;;;;0.79;100.00;101358.84;5220498;28;20078;-67
2021/01/27 02:56:30;;;;;;;10.77;4.78;;;;;;;0.82;100.00;101361.31;5223026;28;20036;-66
2021/01/27 02:59:06;;;;;;;10.77;5.35;;;;;;;0.87;100.00;101359.25;5222858;28;20036;-66
2021/01/27 03:01:57;;;;;;;10.20;4.47;;;;;;;0.88;100.00;101352.19;5222407;28;20025;-66
2021/01/27 03:04:36;;;;;;;;;;;;;;;0.97;100.00;101341.91;5221939;28;20028;-67
2021/01/27 03:07:07;;;;;;;8.23;4.18;;;;;;;1.01;100.00;101350.53;5219563;28;19960;-66
2021/01/27 03:09:49;;;;;;;8.45;4.35;;;;;;;0.91;100.00;101354.66;5220190;28;20028;-66
2021/01/27 03:12:19;;;;;;;7.15;4.38;;;;;;;0.98;100.00;101338.31;5221956;28;20036;-66
2021/01/27 03:14:50;;;;;;;10.25;4.97;;;;;;;0.95;100.00;101332.38;5221928;28;20029;-67
2021/01/27 03:17:22;;;;;;;10.80;4.75;;;;;;;0.92;100.00;101319.38;5222254;28;20032;-65
2021/01/27 03:20:04;;;;;;;11.95;4.97;;;;;;;0.92;100.00;101314.09;5206423;28;20070;-66
2021/01/27 03:22:46;;;;;;;8.68;4.75;;;;;;;0.90;100.00;101314.16;5219181;28;20362;-67
2021/01/27 03:25:24;;;;;;;9.05;4.43;;;;;;;0.97;100.00;101309.38;5221548;28;20029;-67
2021/01/27 03:28:02;;;;;;;14.23;4.82;;;;;;;1.01;100.00;101313.53;5222443;28;20029;-66
2021/01/27 03:30:33;;;;;;;8.13;4.47;;;;;;;0.97;100.00;101302.28;5222221;28;20532;-66
2021/01/27 03:33:13;;;;;;;11.27;5.00;;;;;;;1.00;100.00;101298.59;5221177;28;20029;-66
2021/01/27 03:35:50;;;;;;;11.77;4.60;;;;;;;1.03;100.00;101301.06;5214924;28;20488;-66
2021/01/27 03:38:31;;;;;;;6.03;3.55;;;;;;;1.00;100.00;101288.91;5221844;28;20542;-66
2021/01/27 03:41:14;;;;;;;4.65;3.53;;;;;;;1.08;100.00;101274.34;5223143;28;20024;-66
2021/01/27 03:44:01;;;;;;;5.65;3.08;;;;;;;1.06;100.00;101263.88;5220215;28;20021;-67
2021/01/27 03:46:49;;;;;;;5.03;3.10;;;;;;;1.07;100.00;101255.00;5222141;28;20033;-66
2021/01/27 03:49:25;;;;;;;7.50;3.08;;;;;;;1.06;100.00;101250.69;5221790;28;20063;-67
2021/01/27 03:52:00;;;;;;;7.28;2.80;;;;;;;1.12;100.00;101254.72;5221537;28;20033;-66
2021/01/27 03:54:32;;;;;;;;;;;;;;;1.09;100.00;101253.09;5221526;28;20031;-67
2021/01/27 03:57:07;;;;;;;6.07;2.47;;;;;;;1.09;100.00;101247.81;5222517;28;19909;-66
2021/01/27 03:59:38;;;;;;;4.38;2.78;;;;;;;1.14;100.00;101248.38;5223114;28;20087;-66
2021/01/27 04:02:18;;;;;;;5.05;3.03;;;;;;;1.13;100.00;101251.97;5226228;28;20025;-67
2021/01/27 04:04:49;;;;;;;11.73;3.28;;;;;;;1.09;100.00;101244.34;5224221;28;20063;-67
2021/01/27 04:07:20;;;;;;;5.28;2.40;;;;;;;1.13;100.00;101246.69;5225859;28;20040;-66
2021/01/27 04:09:50;;;;;;;6.32;2.78;;;;;;;1.19;100.00;101230.44;5225042;28;20025;-67
2021/01/27 04:12:21;;;;;;;5.25;2.65;;;;;;;1.18;100.00;101223.47;5225694;28;20104;-66
2021/01/27 04:14:51;;;;;;;3.78;2.70;;;;;;;1.23;100.00;101228.47;5224025;28;20477;-67
2021/01/27 04:17:29;;;;;;;6.05;2.67;;;;;;;1.25;100.00;101234.50;5225698;28;20372;-67
2021/01/27 04:19:59;;;;;;;5.65;2.35;;;;;;;1.32;100.00;101230.53;5208012;28;20033;-65
2021/01/27 04:22:30;;;;;;;3.70;2.10;;;;;;;1.32;100.00;101213.81;5221698;28;20074;-66
2021/01/27 04:25:00;;;;;;;5.40;2.17;;;;;;;1.30;100.00;101205.97;5224099;28;20056;-67
2021/01/27 04:27:31;;;;;;;3.20;2.03;;;;;;;1.23;100.00;101215.25;5224890;28;20051;-66
2021/01/27 04:30:05;;;;;;;6.00;3.15;;;;;;;1.28;100.00;101202.59;5225159;28;20385;-67
2021/01/27 04:32:36;;;;;;;3.97;2.13;;;;;;;1.24;100.00;101203.72;5225260;28;20395;-66
2021/01/27 04:35:08;;;;;;;4.45;2.60;;;;;;;1.22;100.00;101203.00;5223588;28;20033;-66
2021/01/27 04:37:38;;;;;;;3.83;2.38;;;;;;;1.26;100.00;101197.41;5225322;28;20028;-67
2021/01/27 04:40:19;;;;;;;4.13;2.75;;;;;;;1.25;100.00;101184.28;5224060;28;20489;-66
2021/01/27 04:42:50;;;;;;;4.38;2.63;;;;;;;1.26;100.00;101200.06;5224376;28;20586;-66
2021/01/27 04:45:21;;;;;;;4.35;2.03;;;;;;;1.21;100.00;101196.00;5224767;28;20035;-66
2021/01/27 04:48:19;;;;;;;7.82;2.33;;;;;;;1.20;100.00;101197.78;5225112;28;20033;-67
2021/01/27 04:50:55;;;;;;;4.65;2.55;;;;;;;1.24;100.00;101175.50;5213783;28;20481;-66
2021/01/27 04:53:50;;;;;;;4.55;2.78;;;;;;;1.23;100.00;101179.09;5223823;28;20021;-66
2021/01/27 04:56:35;;;;;;;9.98;3.20;;;;;;;1.21;100.00;101183.66;5224697;28;20107;-66
2021/01/27 04:59:26;;;;;;;4.63;2.60;;;;;;;1.26;100.00;101186.00;5224567;28;20549;-67
2021/01/27 05:02:03;;;;;;;6.60;2.78;;;;;;;1.19;100.00;101182.88;5212014;28;20424;-67
2021/01/27 05:04:49;;;;;;;5.88;2.67;;;;;;;1.21;100.00;101180.16;5223161;28;20024;-66
2021/01/27 05:07:28;;;;;;;8.15;2.80;;;;;;;1.18;100.00;101169.78;5224688;28;20515;-66
2021/01/27 05:10:02;;;;;;;4.88;2.85;;;;;;;1.21;100.00;101161.66;5224497;28;20052;-67
2021/01/27 05:12:46;;;;;;;6.50;2.85;;;;;;;1.19;100.00;101160.88;5224134;28;20048;-65
2021/01/27 05:15:18;;;;;;;6.00;3.00;;;;;;;1.18;100.00;101154.75;5223187;28;20104;-67
2021/01/27 05:17:50;;;;;;;6.20;3.53;;;;;;;1.25;100.00;101137.53;5224240;28;20021;-66
2021/01/27 05:20:21;;;;;;;7.13;3.33;;;;;;;1.22;100.00;101131.63;5204136;28;20028;-66
2021/01/27 05:22:52;;;;;;;3.42;2.45;;;;;;;1.23;100.00;101136.81;5222870;28;20021;-66
2021/01/27 05:25:41;;;;;;;8.18;3.15;;;;;;;1.23;100.00;101126.25;5224076;28;20123;-66
2021/01/27 05:28:19;;;;;;;6.78;2.92;;;;;;;1.25;100.00;101120.84;5224522;28;20419;-66
2021/01/27 05:30:53;;;;;;;5.55;3.00;;;;;;;1.24;100.00;101103.28;5223696;28;20431;-67
2021/01/27 05:33:50;;;;;;;4.57;3.10;;;;;;;1.24;100.00;101096.22;5223065;28;20037;-66
2021/01/27 05:36:24;;;;;;;5.03;3.00;;;;;;;1.25;100.00;101089.13;5215836;28;20489;-66
2021/01/27 05:39:15;;;;;;;5.78;3.10;;;;;;;1.22;100.00;101092.84;5223889;28;20056;-66
2021/01/27 05:41:45;;;;;;;11.57;3.45;;;;;;;1.25;100.00;101099.69;5223465;28;20366;-66
2021/01/27 05:44:26;;;;;;;8.85;3.33;;;;;;;1.22;100.00;101113.13;5223180;28;20025;-66
2021/01/27 05:47:18;;;;;;;6.25;3.25;;;;;;;1.31;100.00;101116.97;5223230;28;20036;-66
2021/01/27 05:49:48;;;;;;;8.43;3.97;;;;;;;1.28;100.00;101118.00;5223520;28;20060;-66
2021/01/27 05:52:23;;;;;;;6.80;3.55;;;;;;;1.30;100.00;101126.69;5223224;28;20583;-67
2021/01/27 05:55:06;;;;;;;6.40;3.47;;;;;;;1.31;100.00;101115.19;5222569;28;20388;-66
2021/01/27 05:57:37;;;;;;;8.93;4.43;;;;;;;1.31;100.00;101101.13;5223216;28;20021;-66
2021/01/27 06:00:08;;;;;;;10.60;3.90;;;;;;;1.34;100.00;101095.59;5223120;28;20047;-66
2021/01/27 06:02:41;;;;;;;6.38;3.65;;;;;;;1.31;100.00;101099.31;5222870;28;20024;-66
2021/01/27 06:05:17;;;;;;;6.47;3.47;;;;;;;1.34;100.00;101090.31;5221418;28;20516;-66
2021/01/27 06:07:48;;;;;;;8.38;4.38;;;;;;;1.29;100.00;101086.19;5223315;28;20162;-66
2021/01/27 06:10:31;;;;;;;7.15;4.20;;;;;;;1.37;100.00;101106.84;5223577;28;20528;-66
2021/01/27 06:13:17;;;;;;;12.25;3.95;;;;;;;1.44;100.00;101107.28;5222271;28;20025;-66
2021/01/27 06:15:47;;;;;;;17.48;4.93;;;;;;;1.43;100.00;101098.50;5223032;28;20049;-66
2021/01/27 06:18:20;;;;;;;8.55;4.38;;;;;;;1.43;100.00;101098.50;5220465;28;20508;-66
2021/01/27 06:21:20;;;;;;;6.53;3.80;;;;;;;1.46;100.00;101086.88;5206135;28;20035;-66
2021/01/27 06:23:57;;;;;;;10.10;4.80;;;;;;;1.46;100.00;101078.97;5221597;28;20055;-66
2021/01/27 06:26:51;;;;;;;7.22;4.70;;;;;;;1.45;100.00;101074.59;5222852;28;20040;-67
2021/01/27 06:29:34;;;;;;;8.00;4.45;;;;;;;1.51;100.00;101075.06;5223005;28;20044;-66
2021/01/27 06:32:16;;;;;;;8.80;4.70;;;;;;;1.47;100.00;101084.13;5222272;28;20017;-66
2021/01/27 06:35:10;;;;;;;8.32;5.22;;;;;;;1.45;100.00;101088.66;5216371;28;20064;-66
2021/01/27 06:37:53;;;;;;;9.77;5.43;;;;;;;1.46;100.00;101090.38;5210360;28;20160;-66
2021/01/27 06:40:35;;;;;;;11.55;5.47;;;;;;;1.50;100.00;101086.56;5222972;28;20025;-66
2021/01/27 06:43:23;;;;;;;13.95;5.93;;;;;;;1.48;100.00;101087.63;5222153;28;20028;-66
2021/01/27 06:46:06;;;;;;;11.02;5.70;;;;;;;1.52;100.00;101095.25;5223248;28;20025;-65
2021/01/27 06:49:09;;;;;;;11.13;5.85;;;;;;;1.52;100.00;101100.53;5222413;28;20365;-66
2021/01/27 06:51:41;;;;;;;12.23;5.80;;;;;;;1.58;100.00;101095.78;5222586;28;20025;-65
2021/01/27 06:54:48;;;;;;;15.43;6.88;;;;;;;1.54;100.00;101111.84;5222336;28;20056;-65
2021/01/27 06:57:30;;;;;;;10.45;5.90;;;;;;;1.50;100.00;101109.50;5211420;28;20028;-65
2021/01/27 07:00:10;;;;;;;11.48;6.03;;;;;;;1.57;100.00;101123.19;5222441;28;20029;-65
2021/01/27 07:03:10;;;;;;;10.02;5.80;;;;;;;1.53;100.00;101131.31;5220773;28;20083;-65
2021/01/27 07:06:10;;;;;;;10.02;6.00;;;;;;;1.54;100.00;101135.66;5222380;28;20029;-66
2021/01/27 07:08:54;;;;;;;12.55;7.07;;;;;;;1.49;100.00;101129.81;5222663;28;20025;-65
2021/01/27 07:11:40;;;;;;;11.75;7.07;;;;;;;1.55;100.00;101117.97;5222548;28;20493;-66
2021/01/27 07:14:40;;;;;;;14.35;6.85;;;;;;;1.52;100.00;101113.75;5221357;28;20116;-66
2021/01/27 07:17:22;;;;;;;12.25;6.63;;;;;;;1.60;100.00;101110.59;5222341;28;20402;-66
2021/01/27 07:20:09;;;;;;;12.95;6.85;;;;;;;1.57;100.00;101112.63;5206589;28;20018;-66
2021/01/27 07:22:54;;;;;;;13.70;7.20;;;;;;;1.60;100.00;101113.22;5219764;28;20478;-66
2021/01/27 07:25:35;;;;;;;13.73;7.30;;;;;;;1.58;100.00;101096.63;5222373;28;20560;-66
2021/01/27 07:28:13;;;;;;;17.05;6.90;;;;;;;1.62;100.00;101092.84;5222215;28;20108;-66
2021/01/27 07:31:14;;;;;;;11.15;6.72;;;;;;;1.61;100.00;101085.00;5222240;28;20025;-66
2021/01/27 07:33:56;;;;;;;12.93;7.07;;;;;;;1.60;100.00;101085.94;5221375;28;20025;-66
2021/01/27 07:36:38;;;;;;;14.30;7.63;;;;;;;1.55;100.00;101089.72;5218952;28;20024;-66
2021/01/27 07:39:15;;;;;;;13.55;7.85;;;;;;;1.58;100.00;101096.63;5225500;28;20021;-65
2021/01/27 07:41:55;;;;;;;14.25;8.15;;;;;;;1.58;100.00;101099.28;5226468;28;20020;-66
2021/01/27 07:44:26;;;;;;;15.32;7.72;;;;;;;1.65;100.00;101107.63;5225415;28;20021;-65
2021/01/27 07:47:07;;;;;;;15.95;8.02;;;;;;;1.68;100.00;101104.81;5225945;28;20028;-66
2021/01/27 07:49:50;;;;;;;16.45;8.18;;;;;;;1.70;100.00;101111.66;5225013;28;20029;-65
2021/01/27 07:52:28;;;;;;;14.45;7.30;;;;;;;1.72;100.00;101114.22;5225947;28;20381;-65
2021/01/27 07:55:05;;;;;;;13.02;6.95;;;;;;;1.73;100.00;101105.34;5224950;28;20029;-66
2021/01/27 07:57:43;;;;;;;11.82;6.93;;;;;;;1.77;100.00;101106.84;5226128;28;20029;-66
2021/01/27 08:00:20;;;;;;;11.95;7.43;;;;;;;1.76;100.00;101102.50;5225640;28;20083;-67
2021/01/27 08:03:00;;;;;;;16.92;8.13;;;;;;;1.77;100.00;101105.03;5225117;28;20501;-66
2021/01/27 08:05:36;;;;;;;9.55;5.25;;;;;;;1.80;100.00;101106.59;5225768;28;20021;-66
2021/01/27 08:08:14;;;;;;;10.82;6.43;;;;;;;1.81;100.00;101090.66;5225562;28;20029;-66
2021/01/27 08:10:46;;;;;;;11.18;6.07;;;;;;;1.85;100.00;101090.44;5225779;28;20032;-66
2021/01/27 08:13:34;;;;;;;14.52;6.43;;;;;;;1.80;100.00;101090.72;5211929;28;20056;-66
2021/01/27 08:16:14;;;;;;;15.55;6.97;;;;;;;1.84;100.00;101097.53;5225239;28;20044;-66
2021/01/27 08:19:10;;;;;;;10.48;6.63;;;;;;;1.89;100.00;101097.22;5218274;28;20037;-66
2021/01/27 08:21:44;;;;;;;12.45;6.57;;;;;;;1.85;100.00;101101.84;5215390;28;20104;-67
2021/01/27 08:24:49;;;;;;;12.00;6.90;;;;;;;1.90;100.00;101096.25;5224173;28;20068;-66
2021/01/27 08:27:30;;;;;;;10.30;6.03;;;;;;;1.87;100.00;101093.84;5225030;28;20036;-66
2021/01/27 08:30:02;;;;;;;13.13;6.82;;;;;;;1.87;100.00;101101.78;5224855;28;20091;-64
2021/01/27 08:32:35;;;;;;;13.05;6.78;;;;;;;1.91;100.00;101100.59;5224922;28;20029;-65
2021/01/27 08:35:09;;;;;;;13.23;6.75;;;;;;;1.97;100.00;101105.50;5216113;28;20061;-66
2021/01/27 08:37:41;;;;;;;11.75;6.45;;;;;;;1.96;100.00;101114.38;5225021;28;20024;-66
2021/01/27 08:40:31;;;;;;;13.02;6.90;;;;;;;1.97;100.00;101108.13;5224657;28;20107;-66
2021/01/27 08:43:03;;;;;;;12.20;6.13;;;;;;;1.99;100.00;101108.84;5224888;28;20051;-66
2021/01/27 08:45:34;;;;;;;15.85;8.02;;;;;;;2.01;100.00;101121.06;5224062;28;20028;-66
2021/01/27 08:48:06;;;;;;;16.85;8.30;;;;;;;1.99;100.00;101127.38;5224701;28;20081;-66
2021/01/27 08:50:47;;;;;;;12.73;6.88;;;;;;;2.11;100.00;101128.34;5224796;28;20029;-65
2021/01/27 08:53:19;;;;;;;16.95;8.30;;;;;;;2.03;100.00;101127.06;5224595;28;20057;-66
2021/01/27 08:55:50;;;;;;;14.95;8.30;;;;;;;2.13;100.00;101135.22;5224591;28;20017;-66
2021/01/27 08:58:33;;;;;;;15.27;7.10;;;;;;;2.12;100.00;101130.91;5224856;28;20419;-66
2021/01/27 09:01:08;;;;;;;18.70;9.07;;;;;;;2.12;100.00;101124.75;5224266;28;20481;-66
2021/01/27 09:03:49;;;;;;;17.25;8.32;;;;;;;2.08;100.00;101121.47;5224122;28;20180;-66
2021/01/27 09:06:21;;;;;;;13.15;7.78;;;;;;;2.15;100.00;101133.31;5224218;28;20116;-66
2021/01/27 09:08:54;;;;;;;13.32;8.55;;;;;;;2.16;100.00;101124.44;5224363;28;20029;-65
2021/01/27 09:11:25;;;;;;;15.43;8.77;;;;;;;2.22;100.00;101113.44;5223874;28;20029;-66
2021/01/27 09:14:04;;;;;;;19.50;9.40;;;;;;;2.19;100.00;101110.97;5223882;28;20044;-67
2021/01/27 09:16:36;;;;;;;18.17;9.85;;;;;;;2.23;100.00;101120.41;5224171;28;20060;-66
2021/01/27 09:19:12;;;;;;;20.05;10.38;;;;;;;2.30;100.00;101126.97;5214230;28;20025;-67
2021/01/27 09:21:54;;;;;;;18.73;10.20;;;;;;;2.31;100.00;101133.97;5214108;28;20033;-66
2021/01/27 09:24:31;;;;;;;19.20;8.77;;;;;;;2.40;100.00;101128.97;5223363;28;20507;-67
2021/01/27 09:27:13;;;;;;;18.67;10.07;;;;;;;2.42;100.00;101130.59;5223740;28;20489;-66
2021/01/27 09:29:45;;;;;;;20.27;10.25;;;;;;;2.44;100.00;101139.25;5224095;28;20029;-66
2021/01/27 09:32:17;;;;;;;19.77;9.73;;;;;;;2.46;100.00;101137.38;5223432;28;20021;-66
2021/01/27 09:34:49;;;;;;;18.42;10.00;;;;;;;2.50;100.00;101135.31;5217437;28;20088;-64
2021/01/27 09:37:24;;;;;;;18.67;9.73;;;;;;;2.61;100.00;101132.81;5221822;28;20028;-64
2021/01/27 09:40:05;;;;;;;20.40;10.95;;;;;;;2.53;100.00;101143.06;5223482;28;20100;-66
2021/01/27 09:42:35;;;;;;;22.52;10.80;;;;;;;2.57;100.00;101133.97;5223369;28;20028;-65
2021/01/27 09:45:09;;;;;;;23.75;11.57;;;;;;;2.65;100.00;101144.00;5223131;28;20024;-65
2021/01/27 09:47:43;;;;;;;19.50;10.98;;;;;;;2.68;100.00;101134.03;5223461;28;20558;-64
2021/01/27 09:50:13;;;;;;;22.92;11.40;;;;;;;2.77;100.00;101133.41;5223434;28;20032;-65
2021/01/27 09:52:52;;;;;;;25.48;11.85;;;;;;;2.85;100.00;101136.34;5223001;28;20058;-64
2021/01/27 09:55:25;;;;;;;22.38;10.88;;;;;;;2.87;100.00;101138.88;5210811;28;20032;-65
2021/01/27 09:57:57;;;;;;;31.10;13.43;;;;;;;2.89;100.00;101146.72;5222201;28;20021;-66
2021/01/27 10:00:36;;;;;;;24.40;11.73;;;;;;;2.96;100.00;101148.84;5223705;28;20031;-66
2021/01/27 10:03:19;;;;;;;19.85;11.00;;;;;;;3.08;100.00;101152.41;5222236;28;20029;-65
2021/01/27 10:05:50;;;;;;;21.85;11.63;;;;;;;3.07;100.00;101163.97;5223873;28;20369;-65
2021/01/27 10:08:34;;;;;;;19.90;11.00;;;;;;;3.09;100.00;101162.03;5222785;28;20027;-64
2021/01/27 10:11:08;;;;;;;29.60;11.73;;;;;;;3.14;100.00;101172.31;5222744;28;20503;-63
2021/01/27 10:13:42;;;;;;;23.52;12.13;;;;;;;3.08;100.00;101173.63;5222565;28;20027;-65
2021/01/27 10:16:14;;;;;;;20.80;11.02;;;;;;;3.09;100.00;101177.94;5222864;28;20028;-65
2021/01/27 10:18:45;;;;;;;25.10;11.43;;;;;;;3.11;100.00;101174.25;5216899;28;20018;-66
2021/01/27 10:21:16;;;;;;;23.30;11.73;;;;;;;3.09;100.00;101172.66;5209426;28;20394;-65
2021/01/27 10:23:48;;;;;;;28.30;12.95;;;;;;;3.12;100.00;101169.78;5221703;28;20021;-63
2021/01/27 10:26:35;;;;;;;31.23;16.38;;;;;;;3.16;100.00;101165.09;5223113;28;20023;-65
2021/01/27 10:29:09;;;;;;;30.00;12.52;;;;;;;3.17;100.00;101170.31;5222636;28;20039;-65
2021/01/27 10:31:40;;;;;;;26.17;12.27;;;;;;;3.20;100.00;101179.81;5222943;28;20484;-65
2021/01/27 10:34:38;;;;;;;29.33;13.90;;;;;;;3.16;100.00;101173.88;5220748;28;20278;-65
2021/01/27 10:37:27;;;;;;;28.77;13.30;;;;;;;3.23;100.00;101166.34;5220049;28;20107;-65
2021/01/27 10:40:23;;;;;;;30.83;14.68;;;;;;;3.23;100.00;101176.97;5222882;28;20024;-65
2021/01/27 10:42:57;;;;;;;32.88;14.27;;;;;;;3.24;100.00;101178.66;5221809;28;20047;-67
2021/01/27 10:45:28;;;;;;;41.50;16.48;;;;;;;3.23;100.00;101183.13;5222872;28;20489;-66
2021/01/27 10:48:06;;;;;;;41.05;16.88;;;;;;;3.20;100.00;101182.47;5222661;28;20041;-65
2021/01/27 10:50:43;;;;;;;35.53;15.88;;;;;;;3.25;100.00;101186.50;5210579;28;20029;-65
2021/01/27 10:53:17;;;;;;;34.83;15.68;;;;;;;3.23;100.00;101196.38;5221985;28;20040;-65
2021/01/27 10:55:53;;;;;;;39.30;15.40;;;;;;;3.26;100.00;101180.25;5223179;28;20021;-65
2021/01/27 10:58:24;;;;;;;34.80;15.70;;;;;;;3.31;100.00;101188.72;5222286;28;20017;-65
2021/01/27 11:00:55;;;;;;;36.22;15.02;;;;;;;3.31;100.00;101186.06;5222697;28;20025;-65
2021/01/27 11:03:25;;;;;;;33.58;14.55;;;;;;;3.37;100.00;101185.63;5220907;28;20025;-63
2021/01/27 11:05:56;;;;;;;31.23;14.52;;;;;;;3.44;100.00;101190.47;5222818;28;20054;-65
2021/01/27 11:08:30;;;;;;;35.70;15.77;;;;;;;3.32;100.00;101198.38;5223646;28;20033;-65
2021/01/27 11:11:04;;;;;;;36.85;15.00;;;;;;;3.34;100.00;101191.13;5226705;28;20396;-65
2021/01/27 11:13:35;;;;;;;41.25;16.13;;;;;;;3.34;100.00;101188.47;5225226;28;20029;-64
2021/01/27 11:16:07;;;;;;;36.03;14.55;;;;;;;3.37;100.00;101188.25;5226597;28;20025;-63
2021/01/27 11:18:38;;;;;;;34.75;14.90;;;;;;;3.33;100.00;101188.59;5221108;28;20032;-65
2021/01/27 11:21:09;;;;;;;36.88;16.30;;;;;;;3.36;100.00;101175.97;5213761;28;20028;-65
2021/01/27 11:23:39;;;;;;;34.92;14.68;;;;;;;3.44;100.00;101186.00;5225418;28;20470;-65
2021/01/27 11:26:10;;;;;;;33.08;14.05;;;;;;;3.49;100.00;101181.22;5212869;28;20481;-65
2021/01/27 11:28:40;;;;;;;39.95;15.55;;;;;;;3.50;100.00;101174.94;5226181;28;20501;-65
2021/01/27 11:31:10;;;;;;;32.30;14.95;;;;;;;3.53;100.00;101166.75;5226826;28;20028;-65
2021/01/27 11:33:41;;;;;;;33.42;14.60;;;;;;;3.59;100.00;101168.97;5224921;28;20044;-64
2021/01/27 11:36:17;;;;;;;40.28;15.43;;;;;;;3.62;100.00;101173.22;5218930;28;20021;-65
2021/01/27 11:38:49;;;;;;;36.17;14.45;;;;;;;3.75;100.00;101178.44;5225514;28;20052;-65
2021/01/27 11:41:21;;;;;;;38.15;15.30;;;;;;;3.73;100.00;101180.38;5226362;28;20102;-65
2021/01/27 11:43:52;;;;;;;34.65;14.68;;;;;;;3.71;100.00;101177.81;5225633;28;20021;-65
2021/01/27 11:46:22;;;;;;;29.77;13.68;;;;;;;3.72;100.00;101176.03;5226207;28;20408;-65
2021/01/27 11:48:53;;;;;;;35.47;15.00;;;;;;;3.81;100.00;101192.09;5225644;28;20554;-65
2021/01/27 11:51:23;;;;;;;36.60;15.32;;;;;;;3.85;100.00;101184.75;5225480;28;20035;-65
2021/01/27 11:53:54;;;;;;;40.10;16.75;;;;;;;3.87;100.00;101182.84;5225258;28;20036;-65
2021/01/27 11:56:24;;;;;;;33.08;14.68;;;;;;;3.94;100.00;101181.41;5225670;28;20029;-65
2021/01/27 11:58:55;;;;;;;40.85;16.63;;;;;;;3.96;100.00;101187.44;5225781;28;20024;-65
2021/01/27 12:01:27;;;;;;;35.97;15.60;;;;;;;4.00;100.00;101188.06;5225625;28;20107;-65
2021/01/27 12:03:57;;;;;;;32.90;14.40;;;;;;;4.06;100.00;101190.25;5224706;28;20039;-64